sensor_id;sensor_type;location;lat;lon;timestamp;noise_LAeq;noise_LA_min;noise_LA_max;noise_LA01;noise_LA95
74292;Laerm;62687;55.738;37.516;2023-02-11T00:00:47;69.30;62.15;85.50;;
74292;Laerm;62687;55.738;37.516;2023-02-11T00:03:31;69.25;60.76;80.11;;
74292;Laerm;62687;55.738;37.516;2023-02-11T00:06:15;67.85;60.66;73.50;;
74292;Laerm;62687;55.738;37.516;2023-02-11T00:08:59;71.41;64.27;90.46;;
74292;Laerm;62687;55.738;37.516;2023-02-11T00:14:11;69.46;61.21;85.55;;
74292;Laerm;62687;55.738;37.516;2023-02-11T00:16:55;69.43;61.95;84.24;;
74292;Laerm;62687;55.738;37.516;2023-02-11T00:19:40;69.29;61.81;86.40;;
74292;Laerm;62687;55.738;37.516;2023-02-11T00:22:24;68.66;62.07;84.57;;
74292;Laerm;62687;55.738;37.516;2023-02-11T00:25:08;68.66;62.14;77.98;;
74292;Laerm;62687;55.738;37.516;2023-02-11T00:27:52;68.67;60.51;77.81;;
74292;Laerm;62687;55.738;37.516;2023-02-11T00:30:36;71.97;57.76;87.83;;
74292;Laerm;62687;55.738;37.516;2023-02-11T00:33:20;68.57;62.16;74.51;;
74292;Laerm;62687;55.738;37.516;2023-02-11T00:36:18;68.43;61.62;76.92;;
74292;Laerm;62687;55.738;37.516;2023-02-11T00:39:04;68.56;60.71;80.72;;
74292;Laerm;62687;55.738;37.516;2023-02-11T00:41:48;68.40;60.88;77.04;;
74292;Laerm;62687;55.738;37.516;2023-02-11T00:44:32;67.18;59.02;74.75;;
74292;Laerm;62687;55.738;37.516;2023-02-11T00:47:16;68.68;61.38;78.96;;
74292;Laerm;62687;55.738;37.516;2023-02-11T00:50:01;68.98;60.21;82.85;;
74292;Laerm;62687;55.738;37.516;2023-02-11T00:52:47;68.84;61.62;80.34;;
74292;Laerm;62687;55.738;37.516;2023-02-11T00:55:31;67.79;58.80;74.83;;
74292;Laerm;62687;55.738;37.516;2023-02-11T00:58:16;68.22;59.95;76.55;;
74292;Laerm;62687;55.738;37.516;2023-02-11T01:01:00;69.12;60.38;80.20;;
74292;Laerm;62687;55.738;37.516;2023-02-11T01:03:45;68.75;58.31;81.05;;
74292;Laerm;62687;55.738;37.516;2023-02-11T01:06:29;67.97;61.92;77.37;;
74292;Laerm;62687;55.738;37.516;2023-02-11T01:09:14;67.72;60.11;78.34;;
74292;Laerm;62687;55.738;37.516;2023-02-11T01:11:57;67.98;59.58;73.75;;
74292;Laerm;62687;55.738;37.516;2023-02-11T01:14:42;68.25;56.50;79.63;;
74292;Laerm;62687;55.738;37.516;2023-02-11T01:17:26;67.64;59.71;78.65;;
74292;Laerm;62687;55.738;37.516;2023-02-11T01:20:20;68.56;60.87;80.15;;
74292;Laerm;62687;55.738;37.516;2023-02-11T01:23:04;68.18;56.22;87.62;;
74292;Laerm;62687;55.738;37.516;2023-02-11T01:25:48;67.45;61.18;75.51;;
74292;Laerm;62687;55.738;37.516;2023-02-11T01:28:33;72.08;60.22;90.21;;
74292;Laerm;62687;55.738;37.516;2023-02-11T01:31:17;70.34;61.66;83.97;;
74292;Laerm;62687;55.738;37.516;2023-02-11T01:34:01;67.47;59.96;72.60;;
74292;Laerm;62687;55.738;37.516;2023-02-11T01:36:45;68.22;60.71;76.42;;
74292;Laerm;62687;55.738;37.516;2023-02-11T01:39:32;68.58;61.20;75.53;;
74292;Laerm;62687;55.738;37.516;2023-02-11T01:42:19;68.69;61.81;84.73;;
74292;Laerm;62687;55.738;37.516;2023-02-11T01:48:32;68.54;61.49;80.11;;
74292;Laerm;62687;55.738;37.516;2023-02-11T01:51:23;68.59;62.78;75.36;;
74292;Laerm;62687;55.738;37.516;2023-02-11T01:54:09;68.45;61.52;75.31;;
74292;Laerm;62687;55.738;37.516;2023-02-11T01:57:17;68.30;60.79;83.34;;
74292;Laerm;62687;55.738;37.516;2023-02-11T02:00:13;68.42;60.66;77.37;;
74292;Laerm;62687;55.738;37.516;2023-02-11T02:03:11;67.77;60.90;74.00;;
74292;Laerm;62687;55.738;37.516;2023-02-11T02:06:06;68.47;60.32;76.28;;
74292;Laerm;62687;55.738;37.516;2023-02-11T02:09:03;67.56;59.90;73.63;;
74292;Laerm;62687;55.738;37.516;2023-02-11T02:11:49;68.42;60.42;81.81;;
74292;Laerm;62687;55.738;37.516;2023-02-11T02:14:37;68.12;61.39;73.66;;
74292;Laerm;62687;55.738;37.516;2023-02-11T02:17:37;69.44;62.29;80.97;;
74292;Laerm;62687;55.738;37.516;2023-02-11T02:20:42;68.40;61.81;84.26;;
74292;Laerm;62687;55.738;37.516;2023-02-11T02:29:50;68.01;59.23;74.49;;
74292;Laerm;62687;55.738;37.516;2023-02-11T02:33:13;68.13;58.68;74.20;;
74292;Laerm;62687;55.738;37.516;2023-02-11T02:39:04;68.31;59.40;76.16;;
74292;Laerm;62687;55.738;37.516;2023-02-11T02:41:50;68.40;58.35;79.80;;
74292;Laerm;62687;55.738;37.516;2023-02-11T02:44:36;69.39;61.60;79.46;;
74292;Laerm;62687;55.738;37.516;2023-02-11T02:47:20;68.26;61.85;77.44;;
74292;Laerm;62687;55.738;37.516;2023-02-11T02:50:05;67.99;61.45;74.52;;
74292;Laerm;62687;55.738;37.516;2023-02-11T02:56:00;68.56;61.60;74.80;;
74292;Laerm;62687;55.738;37.516;2023-02-11T03:07:42;68.93;61.76;84.17;;
74292;Laerm;62687;55.738;37.516;2023-02-11T03:10:30;68.83;59.74;82.67;;
74292;Laerm;62687;55.738;37.516;2023-02-11T03:13:18;69.50;63.12;77.37;;
74292;Laerm;62687;55.738;37.516;2023-02-11T03:16:24;69.17;63.04;86.92;;
74292;Laerm;62687;55.738;37.516;2023-02-11T03:19:16;68.77;61.28;79.89;;
74292;Laerm;62687;55.738;37.516;2023-02-11T03:22:02;70.44;60.74;86.48;;
74292;Laerm;62687;55.738;37.516;2023-02-11T03:24:48;69.54;63.51;77.57;;
74292;Laerm;62687;55.738;37.516;2023-02-11T03:27:45;70.59;64.36;88.04;;
74292;Laerm;62687;55.738;37.516;2023-02-11T03:30:48;70.00;63.24;79.25;;
74292;Laerm;62687;55.738;37.516;2023-02-11T03:36:54;70.11;62.89;84.29;;
74292;Laerm;62687;55.738;37.516;2023-02-11T03:39:50;70.15;62.21;77.53;;
74292;Laerm;62687;55.738;37.516;2023-02-11T03:42:45;70.07;62.70;84.29;;
74292;Laerm;62687;55.738;37.516;2023-02-11T03:45:31;69.99;63.62;80.82;;
74292;Laerm;62687;55.738;37.516;2023-02-11T03:48:24;69.60;63.65;78.27;;
74292;Laerm;62687;55.738;37.516;2023-02-11T03:51:11;69.65;64.50;79.29;;
74292;Laerm;62687;55.738;37.516;2023-02-11T03:54:01;70.11;64.01;78.38;;
74292;Laerm;62687;55.738;37.516;2023-02-11T03:56:53;70.28;65.36;79.48;;
74292;Laerm;62687;55.738;37.516;2023-02-11T03:59:57;70.33;62.63;78.81;;
74292;Laerm;62687;55.738;37.516;2023-02-11T04:02:42;69.88;63.57;75.69;;
74292;Laerm;62687;55.738;37.516;2023-02-11T04:05:26;70.23;63.30;81.68;;
74292;Laerm;62687;55.738;37.516;2023-02-11T04:08:10;69.68;63.37;75.70;;
74292;Laerm;62687;55.738;37.516;2023-02-11T04:10:54;70.42;63.84;82.77;;
74292;Laerm;62687;55.738;37.516;2023-02-11T04:13:38;70.15;65.02;74.90;;
74292;Laerm;62687;55.738;37.516;2023-02-11T04:16:22;70.65;64.51;76.36;;
74292;Laerm;62687;55.738;37.516;2023-02-11T04:19:06;71.18;63.96;76.18;;
74292;Laerm;62687;55.738;37.516;2023-02-11T04:21:50;71.55;65.66;77.34;;
74292;Laerm;62687;55.738;37.516;2023-02-11T04:24:34;70.72;64.52;76.35;;
74292;Laerm;62687;55.738;37.516;2023-02-11T04:27:19;71.52;66.31;76.81;;
74292;Laerm;62687;55.738;37.516;2023-02-11T04:30:04;71.04;64.78;82.71;;
74292;Laerm;62687;55.738;37.516;2023-02-11T04:32:48;71.46;66.39;76.40;;
74292;Laerm;62687;55.738;37.516;2023-02-11T04:35:32;71.46;64.29;75.96;;
74292;Laerm;62687;55.738;37.516;2023-02-11T04:38:16;71.21;65.77;76.08;;
74292;Laerm;62687;55.738;37.516;2023-02-11T04:41:00;71.50;66.44;76.32;;
74292;Laerm;62687;55.738;37.516;2023-02-11T04:43:44;71.87;66.85;81.42;;
74292;Laerm;62687;55.738;37.516;2023-02-11T04:46:28;71.81;66.15;76.79;;
74292;Laerm;62687;55.738;37.516;2023-02-11T04:49:13;72.22;67.21;78.04;;
74292;Laerm;62687;55.738;37.516;2023-02-11T04:51:57;72.29;65.82;77.24;;
74292;Laerm;62687;55.738;37.516;2023-02-11T04:54:41;72.17;66.46;80.20;;
74292;Laerm;62687;55.738;37.516;2023-02-11T04:57:25;72.11;67.25;80.30;;
74292;Laerm;62687;55.738;37.516;2023-02-11T05:00:10;71.96;65.45;75.92;;
74292;Laerm;62687;55.738;37.516;2023-02-11T05:02:54;71.93;66.94;79.18;;
74292;Laerm;62687;55.738;37.516;2023-02-11T05:05:39;72.47;68.28;81.02;;
74292;Laerm;62687;55.738;37.516;2023-02-11T05:08:23;72.66;66.65;78.24;;
74292;Laerm;62687;55.738;37.516;2023-02-11T05:11:14;72.50;67.98;77.39;;
74292;Laerm;62687;55.738;37.516;2023-02-11T05:13:59;72.51;67.25;82.90;;
74292;Laerm;62687;55.738;37.516;2023-02-11T05:16:43;72.36;66.99;77.11;;
74292;Laerm;62687;55.738;37.516;2023-02-11T05:19:27;73.15;67.27;87.81;;
74292;Laerm;62687;55.738;37.516;2023-02-11T05:22:11;72.70;67.86;77.74;;
74292;Laerm;62687;55.738;37.516;2023-02-11T05:24:55;72.81;67.47;79.99;;
74292;Laerm;62687;55.738;37.516;2023-02-11T05:27:39;73.12;67.99;82.59;;
74292;Laerm;62687;55.738;37.516;2023-02-11T05:30:23;73.16;66.72;79.07;;
74292;Laerm;62687;55.738;37.516;2023-02-11T05:33:07;73.74;67.62;85.04;;
74292;Laerm;62687;55.738;37.516;2023-02-11T05:35:51;73.36;68.81;85.07;;
74292;Laerm;62687;55.738;37.516;2023-02-11T05:38:35;73.51;68.19;79.32;;
74292;Laerm;62687;55.738;37.516;2023-02-11T05:41:19;74.03;68.55;81.52;;
74292;Laerm;62687;55.738;37.516;2023-02-11T05:44:03;73.87;69.35;79.70;;
74292;Laerm;62687;55.738;37.516;2023-02-11T05:46:48;74.12;69.59;86.01;;
74292;Laerm;62687;55.738;37.516;2023-02-11T05:49:32;73.40;68.91;77.98;;
74292;Laerm;62687;55.738;37.516;2023-02-11T05:52:16;72.96;69.01;78.79;;
74292;Laerm;62687;55.738;37.516;2023-02-11T05:55:00;73.15;68.80;79.54;;
74292;Laerm;62687;55.738;37.516;2023-02-11T05:57:44;72.84;68.24;81.76;;
74292;Laerm;62687;55.738;37.516;2023-02-11T06:00:28;73.61;68.05;77.90;;
74292;Laerm;62687;55.738;37.516;2023-02-11T06:03:12;73.64;67.86;79.90;;
74292;Laerm;62687;55.738;37.516;2023-02-11T06:05:56;73.27;69.19;77.96;;
74292;Laerm;62687;55.738;37.516;2023-02-11T06:08:40;72.97;67.26;77.59;;
74292;Laerm;62687;55.738;37.516;2023-02-11T06:11:25;73.40;68.52;77.93;;
74292;Laerm;62687;55.738;37.516;2023-02-11T06:14:09;73.78;68.93;81.78;;
74292;Laerm;62687;55.738;37.516;2023-02-11T06:16:54;73.68;68.49;81.01;;
74292;Laerm;62687;55.738;37.516;2023-02-11T06:19:38;74.26;69.83;78.14;;
74292;Laerm;62687;55.738;37.516;2023-02-11T06:22:22;73.41;69.20;83.55;;
74292;Laerm;62687;55.738;37.516;2023-02-11T06:25:06;74.17;69.99;89.13;;
74292;Laerm;62687;55.738;37.516;2023-02-11T06:27:50;73.69;66.16;82.44;;
74292;Laerm;62687;55.738;37.516;2023-02-11T06:30:35;73.83;69.07;80.33;;
74292;Laerm;62687;55.738;37.516;2023-02-11T06:33:20;73.54;68.78;78.33;;
74292;Laerm;62687;55.738;37.516;2023-02-11T06:36:11;73.82;69.85;78.09;;
74292;Laerm;62687;55.738;37.516;2023-02-11T06:38:55;73.97;69.11;84.74;;
74292;Laerm;62687;55.738;37.516;2023-02-11T06:41:39;73.76;68.89;78.28;;
74292;Laerm;62687;55.738;37.516;2023-02-11T06:44:23;74.08;69.89;78.07;;
74292;Laerm;62687;55.738;37.516;2023-02-11T06:47:07;73.89;69.83;77.97;;
74292;Laerm;62687;55.738;37.516;2023-02-11T06:49:51;73.91;69.88;79.39;;
74292;Laerm;62687;55.738;37.516;2023-02-11T06:52:35;74.10;68.77;81.31;;
74292;Laerm;62687;55.738;37.516;2023-02-11T06:55:19;73.76;69.23;77.80;;
74292;Laerm;62687;55.738;37.516;2023-02-11T06:58:03;74.17;70.26;79.37;;
74292;Laerm;62687;55.738;37.516;2023-02-11T07:00:48;74.36;70.56;78.66;;
74292;Laerm;62687;55.738;37.516;2023-02-11T07:03:36;73.92;69.16;80.42;;
74292;Laerm;62687;55.738;37.516;2023-02-11T07:06:23;74.09;70.30;80.01;;
74292;Laerm;62687;55.738;37.516;2023-02-11T07:09:10;73.87;68.10;77.50;;
74292;Laerm;62687;55.738;37.516;2023-02-11T07:11:54;73.68;69.45;81.75;;
74292;Laerm;62687;55.738;37.516;2023-02-11T07:14:38;73.52;68.66;78.10;;
74292;Laerm;62687;55.738;37.516;2023-02-11T07:17:22;73.91;70.59;78.10;;
74292;Laerm;62687;55.738;37.516;2023-02-11T07:20:07;74.02;69.77;78.97;;
74292;Laerm;62687;55.738;37.516;2023-02-11T07:22:52;74.33;70.27;83.15;;
74292;Laerm;62687;55.738;37.516;2023-02-11T07:25:36;74.00;69.84;79.82;;
74292;Laerm;62687;55.738;37.516;2023-02-11T07:28:20;73.72;69.53;78.01;;
74292;Laerm;62687;55.738;37.516;2023-02-11T07:31:09;73.68;68.70;78.57;;
74292;Laerm;62687;55.738;37.516;2023-02-11T07:33:57;73.73;69.33;78.83;;
74292;Laerm;62687;55.738;37.516;2023-02-11T07:36:41;73.64;68.69;78.32;;
74292;Laerm;62687;55.738;37.516;2023-02-11T07:39:28;73.26;68.57;86.12;;
74292;Laerm;62687;55.738;37.516;2023-02-11T07:42:13;73.87;69.73;78.32;;
74292;Laerm;62687;55.738;37.516;2023-02-11T07:44:57;74.11;70.00;78.30;;
74292;Laerm;62687;55.738;37.516;2023-02-11T07:47:41;74.22;70.04;77.89;;
74292;Laerm;62687;55.738;37.516;2023-02-11T07:50:25;74.15;69.70;82.64;;
74292;Laerm;62687;55.738;37.516;2023-02-11T07:53:09;73.74;69.42;78.35;;
74292;Laerm;62687;55.738;37.516;2023-02-11T07:55:53;73.86;69.18;80.43;;
74292;Laerm;62687;55.738;37.516;2023-02-11T07:58:37;73.93;69.09;78.30;;
74292;Laerm;62687;55.738;37.516;2023-02-11T08:01:23;73.50;69.39;77.76;;
74292;Laerm;62687;55.738;37.516;2023-02-11T08:04:08;74.19;70.02;78.64;;
74292;Laerm;62687;55.738;37.516;2023-02-11T08:06:52;74.30;70.11;84.05;;
74292;Laerm;62687;55.738;37.516;2023-02-11T08:09:38;73.61;68.63;84.16;;
74292;Laerm;62687;55.738;37.516;2023-02-11T08:12:22;74.00;70.23;79.28;;
74292;Laerm;62687;55.738;37.516;2023-02-11T08:15:07;73.90;69.99;84.89;;
74292;Laerm;62687;55.738;37.516;2023-02-11T08:17:51;73.58;69.68;85.45;;
74292;Laerm;62687;55.738;37.516;2023-02-11T08:20:35;74.34;69.61;89.29;;
74292;Laerm;62687;55.738;37.516;2023-02-11T08:23:19;74.13;69.91;84.67;;
74292;Laerm;62687;55.738;37.516;2023-02-11T08:26:05;73.98;69.44;79.07;;
74292;Laerm;62687;55.738;37.516;2023-02-11T08:28:52;74.41;70.38;80.76;;
74292;Laerm;62687;55.738;37.516;2023-02-11T08:31:39;73.70;69.74;79.34;;
74292;Laerm;62687;55.738;37.516;2023-02-11T08:34:23;73.57;69.42;81.70;;
74292;Laerm;62687;55.738;37.516;2023-02-11T08:37:07;74.08;69.52;78.19;;
74292;Laerm;62687;55.738;37.516;2023-02-11T08:39:51;73.29;69.20;79.53;;
74292;Laerm;62687;55.738;37.516;2023-02-11T08:42:35;74.07;70.47;78.43;;
74292;Laerm;62687;55.738;37.516;2023-02-11T08:45:19;74.10;69.53;88.73;;
74292;Laerm;62687;55.738;37.516;2023-02-11T08:48:03;73.93;70.22;77.53;;
74292;Laerm;62687;55.738;37.516;2023-02-11T08:50:47;73.66;69.36;77.91;;
74292;Laerm;62687;55.738;37.516;2023-02-11T08:53:31;73.62;70.03;78.13;;
74292;Laerm;62687;55.738;37.516;2023-02-11T08:56:17;74.07;69.53;81.27;;
74292;Laerm;62687;55.738;37.516;2023-02-11T08:59:02;73.94;70.28;80.11;;
74292;Laerm;62687;55.738;37.516;2023-02-11T09:01:47;74.04;68.86;78.92;;
74292;Laerm;62687;55.738;37.516;2023-02-11T09:04:31;73.64;69.33;78.90;;
74292;Laerm;62687;55.738;37.516;2023-02-11T09:07:15;73.67;69.24;79.01;;
74292;Laerm;62687;55.738;37.516;2023-02-11T09:09:59;74.04;70.07;80.11;;
74292;Laerm;62687;55.738;37.516;2023-02-11T09:12:43;73.81;69.84;77.51;;
74292;Laerm;62687;55.738;37.516;2023-02-11T09:15:28;73.93;69.19;78.02;;
74292;Laerm;62687;55.738;37.516;2023-02-11T09:18:12;73.37;68.66;82.32;;
74292;Laerm;62687;55.738;37.516;2023-02-11T09:21:04;73.59;68.92;77.60;;
74292;Laerm;62687;55.738;37.516;2023-02-11T09:23:49;73.58;68.96;87.59;;
74292;Laerm;62687;55.738;37.516;2023-02-11T09:26:34;73.75;69.95;77.22;;
74292;Laerm;62687;55.738;37.516;2023-02-11T09:29:19;74.10;69.80;81.27;;
74292;Laerm;62687;55.738;37.516;2023-02-11T09:32:03;74.25;69.77;80.50;;
74292;Laerm;62687;55.738;37.516;2023-02-11T09:34:47;73.62;69.60;77.91;;
74292;Laerm;62687;55.738;37.516;2023-02-11T09:37:31;73.93;69.45;83.21;;
74292;Laerm;62687;55.738;37.516;2023-02-11T09:40:15;73.70;68.89;82.81;;
74292;Laerm;62687;55.738;37.516;2023-02-11T09:46:15;74.36;70.17;80.72;;
74292;Laerm;62687;55.738;37.516;2023-02-11T09:49:01;73.91;69.30;78.06;;
74292;Laerm;62687;55.738;37.516;2023-02-11T09:51:57;74.27;70.30;79.23;;
74292;Laerm;62687;55.738;37.516;2023-02-11T09:54:55;74.30;69.35;86.20;;
74292;Laerm;62687;55.738;37.516;2023-02-11T09:57:40;73.40;69.16;79.40;;
74292;Laerm;62687;55.738;37.516;2023-02-11T10:00:36;73.32;67.72;83.28;;
74292;Laerm;62687;55.738;37.516;2023-02-11T10:03:35;72.59;68.16;84.76;;
74292;Laerm;62687;55.738;37.516;2023-02-11T10:06:31;72.14;67.40;76.03;;
74292;Laerm;62687;55.738;37.516;2023-02-11T10:22:28;72.06;65.48;77.17;;
74292;Laerm;62687;55.738;37.516;2023-02-11T10:25:23;72.35;68.06;76.28;;
74292;Laerm;62687;55.738;37.516;2023-02-11T10:28:20;72.63;68.12;77.75;;
74292;Laerm;62687;55.738;37.516;2023-02-11T10:31:18;73.80;67.36;86.14;;
74292;Laerm;62687;55.738;37.516;2023-02-11T10:34:05;72.71;68.30;77.31;;
74292;Laerm;62687;55.738;37.516;2023-02-11T10:36:50;73.00;68.83;76.66;;
74292;Laerm;62687;55.738;37.516;2023-02-11T10:39:34;72.36;66.43;76.77;;
74292;Laerm;62687;55.738;37.516;2023-02-11T10:42:18;72.56;67.33;81.57;;
74292;Laerm;62687;55.738;37.516;2023-02-11T10:45:03;73.79;68.79;78.49;;
74292;Laerm;62687;55.738;37.516;2023-02-11T10:47:50;73.59;69.54;78.33;;
74292;Laerm;62687;55.738;37.516;2023-02-11T10:50:34;74.15;69.07;85.11;;
74292;Laerm;62687;55.738;37.516;2023-02-11T10:53:19;73.88;69.91;77.44;;
74292;Laerm;62687;55.738;37.516;2023-02-11T10:56:06;73.97;70.14;93.33;;
74292;Laerm;62687;55.738;37.516;2023-02-11T10:59:14;74.22;70.22;81.26;;
74292;Laerm;62687;55.738;37.516;2023-02-11T11:02:04;74.79;70.69;88.54;;
74292;Laerm;62687;55.738;37.516;2023-02-11T11:04:54;74.65;69.63;84.32;;
74292;Laerm;62687;55.738;37.516;2023-02-11T11:07:54;74.68;70.87;80.13;;
74292;Laerm;62687;55.738;37.516;2023-02-11T11:10:40;74.13;70.81;79.34;;
74292;Laerm;62687;55.738;37.516;2023-02-11T11:16:35;74.49;70.61;79.16;;
74292;Laerm;62687;55.738;37.516;2023-02-11T11:19:22;73.76;70.47;77.06;;
74292;Laerm;62687;55.738;37.516;2023-02-11T11:22:19;72.94;69.53;77.59;;
74292;Laerm;62687;55.738;37.516;2023-02-11T11:25:04;72.15;68.55;77.57;;
74292;Laerm;62687;55.738;37.516;2023-02-11T11:27:49;72.32;68.17;75.94;;
74292;Laerm;62687;55.738;37.516;2023-02-11T11:30:41;71.96;68.60;83.44;;
74292;Laerm;62687;55.738;37.516;2023-02-11T11:33:28;73.23;68.37;84.73;;
74292;Laerm;62687;55.738;37.516;2023-02-11T11:36:15;72.83;68.47;81.29;;
74292;Laerm;62687;55.738;37.516;2023-02-11T11:39:22;73.22;69.19;85.59;;
74292;Laerm;62687;55.738;37.516;2023-02-11T11:42:31;72.66;68.97;78.89;;
74292;Laerm;62687;55.738;37.516;2023-02-11T11:51:00;73.27;66.13;90.94;;
74292;Laerm;62687;55.738;37.516;2023-02-11T11:54:02;72.81;68.05;77.33;;
74292;Laerm;62687;55.738;37.516;2023-02-11T11:56:57;73.92;69.88;83.73;;
74292;Laerm;62687;55.738;37.516;2023-02-11T11:59:44;73.58;69.18;77.94;;
74292;Laerm;62687;55.738;37.516;2023-02-11T12:02:46;73.72;69.56;78.12;;
74292;Laerm;62687;55.738;37.516;2023-02-11T12:05:51;73.62;69.48;78.57;;
74292;Laerm;62687;55.738;37.516;2023-02-11T12:22:09;73.66;68.02;82.12;;
74292;Laerm;62687;55.738;37.516;2023-02-11T12:28:06;73.92;69.69;84.43;;
74292;Laerm;62687;55.738;37.516;2023-02-11T12:31:14;73.42;69.33;82.53;;
74292;Laerm;62687;55.738;37.516;2023-02-11T12:43:58;73.43;69.48;77.72;;
74292;Laerm;62687;55.738;37.516;2023-02-11T12:56:35;73.44;68.86;78.32;;
74292;Laerm;62687;55.738;37.516;2023-02-11T12:59:59;73.67;69.44;79.97;;
74292;Laerm;62687;55.738;37.516;2023-02-11T13:08:37;73.55;69.35;78.51;;
74292;Laerm;62687;55.738;37.516;2023-02-11T13:11:39;73.41;67.92;77.52;;
74292;Laerm;62687;55.738;37.516;2023-02-11T13:14:32;73.37;68.94;78.72;;
74292;Laerm;62687;55.738;37.516;2023-02-11T13:17:27;73.72;69.20;83.18;;
74292;Laerm;62687;55.738;37.516;2023-02-11T13:20:39;73.76;69.75;82.75;;
74292;Laerm;62687;55.738;37.516;2023-02-11T13:23:37;74.17;69.45;89.38;;
74292;Laerm;62687;55.738;37.516;2023-02-11T13:38:34;72.68;68.54;76.87;;
74292;Laerm;62687;55.738;37.516;2023-02-11T13:46:57;73.72;69.49;83.31;;
74292;Laerm;62687;55.738;37.516;2023-02-11T13:49:48;73.56;69.07;77.37;;
74292;Laerm;62687;55.738;37.516;2023-02-11T13:52:37;73.62;69.28;86.20;;
74292;Laerm;62687;55.738;37.516;2023-02-11T13:55:22;73.16;68.93;77.20;;
74292;Laerm;62687;55.738;37.516;2023-02-11T14:00:50;72.96;68.68;80.06;;
74292;Laerm;62687;55.738;37.516;2023-02-11T14:03:36;72.96;69.21;80.24;;
74292;Laerm;62687;55.738;37.516;2023-02-11T14:07:25;72.91;68.39;76.93;;
74292;Laerm;62687;55.738;37.516;2023-02-11T14:10:52;73.08;69.01;84.15;;
74292;Laerm;62687;55.738;37.516;2023-02-11T14:16:30;73.09;68.81;84.44;;
74292;Laerm;62687;55.738;37.516;2023-02-11T14:19:30;73.36;68.79;87.28;;
74292;Laerm;62687;55.738;37.516;2023-02-11T14:22:43;73.12;69.22;81.33;;
74292;Laerm;62687;55.738;37.516;2023-02-11T14:25:26;72.49;68.21;76.61;;
74292;Laerm;62687;55.738;37.516;2023-02-11T14:28:21;73.09;69.27;77.61;;
74292;Laerm;62687;55.738;37.516;2023-02-11T14:31:20;73.46;67.31;93.04;;
74292;Laerm;62687;55.738;37.516;2023-02-11T14:39:53;73.01;67.99;87.37;;
74292;Laerm;62687;55.738;37.516;2023-02-11T14:42:39;72.97;68.74;83.82;;
74292;Laerm;62687;55.738;37.516;2023-02-11T14:45:26;72.96;68.85;78.05;;
74292;Laerm;62687;55.738;37.516;2023-02-11T14:48:16;73.00;67.98;79.92;;
74292;Laerm;62687;55.738;37.516;2023-02-11T14:51:10;73.05;68.95;81.48;;
74292;Laerm;62687;55.738;37.516;2023-02-11T14:54:01;72.99;68.47;79.86;;
74292;Laerm;62687;55.738;37.516;2023-02-11T14:57:14;72.50;67.79;79.12;;
74292;Laerm;62687;55.738;37.516;2023-02-11T15:00:02;72.28;67.81;82.69;;
74292;Laerm;62687;55.738;37.516;2023-02-11T15:02:47;71.96;68.69;76.54;;
74292;Laerm;62687;55.738;37.516;2023-02-11T15:05:32;72.27;67.79;90.88;;
74292;Laerm;62687;55.738;37.516;2023-02-11T15:08:16;71.76;67.76;83.48;;
74292;Laerm;62687;55.738;37.516;2023-02-11T15:11:02;71.22;67.74;76.35;;
74292;Laerm;62687;55.738;37.516;2023-02-11T15:13:48;71.17;67.53;82.15;;
74292;Laerm;62687;55.738;37.516;2023-02-11T15:16:33;71.35;67.40;78.11;;
74292;Laerm;62687;55.738;37.516;2023-02-11T15:22:20;71.34;68.29;77.95;;
74292;Laerm;62687;55.738;37.516;2023-02-11T15:25:15;71.53;67.79;85.70;;
74292;Laerm;62687;55.738;37.516;2023-02-11T15:28:00;71.39;68.05;81.28;;
74292;Laerm;62687;55.738;37.516;2023-02-11T15:30:44;71.75;67.12;80.01;;
74292;Laerm;62687;55.738;37.516;2023-02-11T15:33:29;71.20;66.21;87.00;;
74292;Laerm;62687;55.738;37.516;2023-02-11T15:36:16;70.62;66.69;79.38;;
74292;Laerm;62687;55.738;37.516;2023-02-11T15:39:29;71.04;65.43;80.61;;
74292;Laerm;62687;55.738;37.516;2023-02-11T15:45:09;71.25;67.31;76.73;;
74292;Laerm;62687;55.738;37.516;2023-02-11T15:48:18;70.66;67.10;75.01;;
74292;Laerm;62687;55.738;37.516;2023-02-11T15:51:19;70.92;67.26;78.88;;
74292;Laerm;62687;55.738;37.516;2023-02-11T15:54:07;71.02;66.96;79.24;;
74292;Laerm;62687;55.738;37.516;2023-02-11T15:57:01;70.49;67.02;74.45;;
74292;Laerm;62687;55.738;37.516;2023-02-11T15:59:49;71.02;66.64;81.40;;
74292;Laerm;62687;55.738;37.516;2023-02-11T16:02:34;71.14;67.14;77.57;;
74292;Laerm;62687;55.738;37.516;2023-02-11T16:11:04;71.30;66.14;86.53;;
74292;Laerm;62687;55.738;37.516;2023-02-11T16:13:52;70.94;66.50;75.96;;
74292;Laerm;62687;55.738;37.516;2023-02-11T16:16:36;70.69;67.30;81.72;;
74292;Laerm;62687;55.738;37.516;2023-02-11T16:19:22;70.15;66.69;77.53;;
74292;Laerm;62687;55.738;37.516;2023-02-11T16:22:10;69.68;65.72;79.01;;
74292;Laerm;62687;55.738;37.516;2023-02-11T16:24:58;69.59;65.49;75.04;;
74292;Laerm;62687;55.738;37.516;2023-02-11T16:27:47;70.43;66.04;88.72;;
74292;Laerm;62687;55.738;37.516;2023-02-11T16:30:34;69.57;65.40;77.92;;
74292;Laerm;62687;55.738;37.516;2023-02-11T16:33:22;70.00;66.51;82.46;;
74292;Laerm;62687;55.738;37.516;2023-02-11T16:36:14;70.12;66.57;77.60;;
74292;Laerm;62687;55.738;37.516;2023-02-11T16:39:01;70.30;66.08;74.35;;
74292;Laerm;62687;55.738;37.516;2023-02-11T16:41:46;69.66;66.23;74.77;;
74292;Laerm;62687;55.738;37.516;2023-02-11T16:44:31;69.61;65.49;79.31;;
74292;Laerm;62687;55.738;37.516;2023-02-11T16:47:19;69.09;65.43;83.07;;
74292;Laerm;62687;55.738;37.516;2023-02-11T16:50:07;69.35;64.47;78.43;;
74292;Laerm;62687;55.738;37.516;2023-02-11T16:52:52;69.21;65.63;75.78;;
74292;Laerm;62687;55.738;37.516;2023-02-11T16:55:36;69.02;65.31;74.01;;
74292;Laerm;62687;55.738;37.516;2023-02-11T16:58:20;68.83;64.74;82.56;;
74292;Laerm;62687;55.738;37.516;2023-02-11T17:01:05;68.72;63.77;86.21;;
74292;Laerm;62687;55.738;37.516;2023-02-11T17:03:49;68.90;65.01;77.46;;
74292;Laerm;62687;55.738;37.516;2023-02-11T17:06:34;68.86;65.62;73.88;;
74292;Laerm;62687;55.738;37.516;2023-02-11T17:09:26;69.10;65.72;76.38;;
74292;Laerm;62687;55.738;37.516;2023-02-11T17:12:10;70.18;64.81;91.75;;
74292;Laerm;62687;55.738;37.516;2023-02-11T17:14:54;69.00;64.42;77.30;;
74292;Laerm;62687;55.738;37.516;2023-02-11T17:17:38;68.61;63.90;81.00;;
74292;Laerm;62687;55.738;37.516;2023-02-11T17:20:22;68.58;64.03;82.14;;
74292;Laerm;62687;55.738;37.516;2023-02-11T17:23:07;68.11;64.25;79.90;;
74292;Laerm;62687;55.738;37.516;2023-02-11T17:25:55;68.11;64.49;84.78;;
74292;Laerm;62687;55.738;37.516;2023-02-11T17:28:39;68.52;63.80;77.79;;
74292;Laerm;62687;55.738;37.516;2023-02-11T17:31:23;67.93;63.91;77.05;;
74292;Laerm;62687;55.738;37.516;2023-02-11T17:34:08;67.72;63.87;79.81;;
74292;Laerm;62687;55.738;37.516;2023-02-11T17:36:53;67.96;64.16;81.32;;
74292;Laerm;62687;55.738;37.516;2023-02-11T17:39:38;68.53;64.87;80.74;;
74292;Laerm;62687;55.738;37.516;2023-02-11T17:42:22;68.11;64.61;73.59;;
74292;Laerm;62687;55.738;37.516;2023-02-11T17:45:07;67.18;63.37;73.60;;